createdAt,value
2022-12-03T00:00:12.942Z,102415.94
2022-12-03T00:02:41.451Z,102414.97
2022-12-03T00:05:11.598Z,102411.16
2022-12-03T00:07:39.458Z,102409.53
2022-12-03T00:10:08.749Z,102386.91
2022-12-03T00:12:36.519Z,102386.78
2022-12-03T00:15:04.761Z,102374.72
2022-12-03T00:17:32.483Z,102382.91
2022-12-03T00:20:00.288Z,102385.59
2022-12-03T00:22:29.382Z,102389.22
2022-12-03T00:24:57.125Z,102387.75
2022-12-03T00:27:24.797Z,102393.47
2022-12-03T00:29:52.543Z,102400.50
2022-12-03T00:32:20.277Z,102397.63
2022-12-03T00:34:48.010Z,102390.50
2022-12-03T00:37:15.783Z,102411.00
2022-12-03T00:39:44.843Z,102403.81
2022-12-03T00:42:12.591Z,102394.16
2022-12-03T00:44:40.290Z,102398.34
2022-12-03T00:47:08.125Z,102409.50
2022-12-03T00:49:35.932Z,102413.28
2022-12-03T00:52:03.682Z,102416.28
2022-12-03T00:54:32.227Z,102403.81
2022-12-03T00:57:01.521Z,102415.06
2022-12-03T00:59:29.213Z,102412.34
2022-12-03T01:01:57.141Z,102399.69
2022-12-03T01:04:25.000Z,102414.78
2022-12-03T01:06:52.957Z,102430.66
2022-12-03T01:09:20.728Z,102434.06
2022-12-03T01:11:48.454Z,102424.41
2022-12-03T01:14:19.027Z,102422.41
2022-12-03T01:16:47.280Z,102439.41
2022-12-03T01:19:16.422Z,102423.16
2022-12-03T01:21:44.893Z,102432.66
2022-12-03T01:24:13.173Z,102429.44
2022-12-03T01:26:41.307Z,102427.97
2022-12-03T01:29:09.056Z,102445.16
2022-12-03T01:31:55.453Z,102455.09
2022-12-03T01:34:23.178Z,102447.56
2022-12-03T01:36:52.385Z,102458.91
2022-12-03T01:39:20.558Z,102450.81
2022-12-03T01:41:49.718Z,102436.25
2022-12-03T01:44:22.066Z,102464.44
2022-12-03T01:46:53.013Z,102459.59
2022-12-03T01:49:23.595Z,102471.38
2022-12-03T01:51:53.691Z,102458.47
2022-12-03T01:54:26.401Z,102454.56
2022-12-03T01:56:56.197Z,102448.84
2022-12-03T01:59:31.048Z,102445.69
2022-12-03T02:02:01.036Z,102451.41
2022-12-03T02:04:28.941Z,102451.72
2022-12-03T02:06:56.775Z,102466.91
2022-12-03T02:09:24.507Z,102480.47
2022-12-03T02:11:53.278Z,102485.06
2022-12-03T02:14:23.039Z,102475.13
2022-12-03T02:16:50.787Z,102463.16
2022-12-03T02:19:25.251Z,102461.72
2022-12-03T02:22:01.070Z,102457.66
2022-12-03T02:24:37.611Z,102482.72
2022-12-03T02:27:07.274Z,102494.34
2022-12-03T02:29:34.973Z,102493.72
2022-12-03T02:32:02.750Z,102490.03
2022-12-03T02:34:35.617Z,102494.19
2022-12-03T02:37:05.258Z,102497.81
2022-12-03T02:39:34.032Z,102490.53
2022-12-03T02:42:19.313Z,102499.53
2022-12-03T02:44:48.443Z,102494.09
2022-12-03T02:47:16.872Z,102492.53
2022-12-03T02:49:44.879Z,102494.66
2022-12-03T02:52:12.866Z,102493.41
2022-12-03T02:54:40.657Z,102481.88
2022-12-03T02:57:08.539Z,102464.44
2022-12-03T02:59:36.432Z,102468.84
2022-12-03T03:02:05.675Z,102473.47
2022-12-03T03:04:33.504Z,102451.75
2022-12-03T03:07:01.328Z,102439.69
2022-12-03T03:09:29.183Z,102430.34
2022-12-03T03:11:57.004Z,102446.78
2022-12-03T03:14:24.802Z,102428.31
2022-12-03T03:16:56.151Z,102424.34
2022-12-03T03:19:26.862Z,102452.63
2022-12-03T03:21:55.393Z,102451.41
2022-12-03T03:24:24.263Z,102477.28
2022-12-03T03:26:52.082Z,102471.63
2022-12-03T03:29:20.110Z,102477.41
2022-12-03T03:31:48.469Z,102459.19
2022-12-03T03:34:17.503Z,102457.31
2022-12-03T03:36:47.295Z,102460.97
2022-12-03T03:39:15.317Z,102467.13
2022-12-03T03:41:46.647Z,102470.44
2022-12-03T03:44:15.092Z,102474.91
2022-12-03T03:46:43.674Z,102456.41
2022-12-03T03:49:11.905Z,102439.63
2022-12-03T03:51:39.995Z,102389.44
2022-12-03T03:54:09.526Z,102362.78
2022-12-03T03:56:37.346Z,102356.00
2022-12-03T03:59:05.482Z,102363.47
2022-12-03T04:01:33.379Z,102358.50
2022-12-03T04:04:01.483Z,102370.41
2022-12-03T04:06:29.688Z,102373.56
2022-12-03T04:08:57.409Z,102367.75
2022-12-03T04:11:43.937Z,102370.13
2022-12-03T04:14:11.644Z,102353.22
2022-12-03T04:16:39.339Z,102358.81
2022-12-03T04:19:07.056Z,102351.56
2022-12-03T04:21:52.414Z,102356.59
2022-12-03T04:24:20.084Z,102345.09
2022-12-03T04:27:06.763Z,102347.88
2022-12-03T04:29:34.525Z,102358.31
2022-12-03T04:32:19.820Z,102366.22
2022-12-03T04:35:05.234Z,102382.84
2022-12-03T04:37:33.035Z,102366.41
2022-12-03T04:40:00.726Z,102366.59
2022-12-03T04:42:29.821Z,102363.53
2022-12-03T04:44:58.404Z,102365.53
2022-12-03T04:47:26.100Z,102361.63
2022-12-03T04:49:53.824Z,102353.50
2022-12-03T04:52:22.185Z,102346.94
2022-12-03T04:54:50.005Z,102359.34
2022-12-03T04:57:18.248Z,102361.88
2022-12-03T04:59:47.373Z,102357.75
2022-12-03T05:02:15.112Z,102348.25
2022-12-03T05:04:42.855Z,102345.16
2022-12-03T05:07:10.638Z,102367.59
2022-12-03T05:09:38.360Z,102329.22
2022-12-03T05:12:06.520Z,102352.50
2022-12-03T05:14:34.227Z,102362.13
2022-12-03T05:17:03.366Z,102355.03
2022-12-03T05:19:45.012Z,102348.94
2022-12-03T05:22:12.756Z,102367.88
2022-12-03T05:24:40.467Z,102369.06
2022-12-03T05:27:08.193Z,102361.13
2022-12-03T05:29:35.926Z,102350.44
2022-12-03T05:32:05.140Z,102348.19
2022-12-03T05:34:32.944Z,102354.88
2022-12-03T05:37:00.661Z,102352.91
2022-12-03T05:39:28.367Z,102350.09
2022-12-03T05:42:13.531Z,102344.38
2022-12-03T05:44:41.268Z,102341.22
2022-12-03T05:47:10.330Z,102337.94
2022-12-03T05:49:38.076Z,102344.81
2022-12-03T05:52:06.142Z,102353.56
2022-12-03T05:54:33.895Z,102337.06
2022-12-03T05:57:01.581Z,102354.56
2022-12-03T05:59:29.311Z,102366.47
2022-12-03T06:01:57.029Z,102353.50
2022-12-03T06:04:26.060Z,102343.88
2022-12-03T06:06:53.768Z,102355.13
2022-12-03T06:09:21.426Z,102341.25
2022-12-03T06:11:53.422Z,102341.44
2022-12-03T06:14:21.158Z,102322.53
2022-12-03T06:16:48.873Z,102316.59
2022-12-03T06:19:16.589Z,102306.34
2022-12-03T06:21:45.661Z,102302.34
2022-12-03T06:24:13.463Z,102308.66
2022-12-03T06:26:41.201Z,102298.75
2022-12-03T06:29:08.882Z,102283.34
2022-12-03T06:31:36.704Z,102302.81
2022-12-03T06:34:04.463Z,102311.25
2022-12-03T06:36:32.192Z,102312.25
2022-12-03T06:39:01.237Z,102306.16
2022-12-03T06:41:28.942Z,102307.75
2022-12-03T06:43:56.657Z,102312.13
2022-12-03T06:46:24.941Z,102316.53
2022-12-03T06:48:52.723Z,102300.06
2022-12-03T06:51:20.810Z,102304.97
2022-12-03T06:53:48.520Z,102314.91
2022-12-03T06:56:21.491Z,102295.06
2022-12-03T06:58:50.116Z,102304.44
2022-12-03T07:01:17.860Z,102284.88
2022-12-03T07:03:45.608Z,102284.69
2022-12-03T07:06:13.859Z,102284.78
2022-12-03T07:08:41.674Z,102274.19
2022-12-03T07:11:30.064Z,102275.25
2022-12-03T07:14:05.093Z,102262.75
2022-12-03T07:16:33.637Z,102280.94
2022-12-03T07:19:01.393Z,102291.19
2022-12-03T07:21:29.084Z,102292.22
2022-12-03T07:23:56.818Z,102293.81
2022-12-03T07:26:24.540Z,102297.16
2022-12-03T07:28:52.273Z,102284.94
2022-12-03T07:31:21.406Z,102281.88
2022-12-03T07:33:49.175Z,102291.06
2022-12-03T07:36:16.908Z,102293.41
2022-12-03T07:38:44.620Z,102289.16
2022-12-03T07:41:27.404Z,102273.78
2022-12-03T07:43:55.155Z,102286.13
2022-12-03T07:46:24.324Z,102282.75
2022-12-03T07:48:52.107Z,102299.31
2022-12-03T07:51:19.836Z,102292.28
2022-12-03T07:53:47.549Z,102296.47
2022-12-03T07:56:15.250Z,102301.66
2022-12-03T07:58:42.969Z,102301.66
2022-12-03T08:01:11.288Z,102295.81
2022-12-03T08:03:42.845Z,102283.97
2022-12-03T08:06:10.671Z,102295.94
2022-12-03T08:08:38.427Z,102295.84
2022-12-03T08:11:06.489Z,102297.72
2022-12-03T08:13:36.064Z,102289.94
2022-12-03T08:16:17.128Z,102288.44
2022-12-03T08:18:46.996Z,102292.69
2022-12-03T08:21:16.954Z,102286.72
2022-12-03T08:23:45.297Z,102280.78
2022-12-03T08:26:20.649Z,102271.56
2022-12-03T08:28:48.657Z,102275.19
2022-12-03T08:31:19.902Z,102254.06
2022-12-03T08:33:51.213Z,102264.63
2022-12-03T08:36:22.727Z,102261.09
2022-12-03T08:38:53.002Z,102269.34
2022-12-03T08:41:42.271Z,102265.63
2022-12-03T08:44:25.049Z,102252.56
2022-12-03T08:46:58.517Z,102254.09
2022-12-03T08:49:27.641Z,102248.50
2022-12-03T08:51:58.480Z,102260.94
2022-12-03T08:54:26.877Z,102245.91
2022-12-03T08:56:54.829Z,102266.22
2022-12-03T08:59:27.619Z,102280.25
2022-12-03T09:01:55.442Z,102270.81
2022-12-03T09:04:28.351Z,102280.44
2022-12-03T09:06:56.971Z,102301.97
2022-12-03T09:09:25.106Z,102291.47
2022-12-03T09:11:53.876Z,102313.66
2022-12-03T09:14:22.768Z,102330.78
2022-12-03T09:16:51.963Z,102337.00
2022-12-03T09:19:19.783Z,102345.41
2022-12-03T09:21:48.888Z,102323.63
2022-12-03T09:24:16.589Z,102331.78
2022-12-03T09:26:44.360Z,102327.34
2022-12-03T09:29:12.811Z,102343.56
2022-12-03T09:31:41.084Z,102334.06
2022-12-03T09:34:09.295Z,102306.97
2022-12-03T09:36:37.034Z,102313.22
2022-12-03T09:39:06.521Z,102268.72
2022-12-03T09:41:34.235Z,102288.16
2022-12-03T09:44:04.493Z,102282.44
2022-12-03T09:46:33.629Z,102266.63
2022-12-03T09:49:01.927Z,102268.66
2022-12-03T09:51:33.942Z,102273.81
2022-12-03T09:54:02.598Z,102262.00
2022-12-03T09:56:32.037Z,102259.63
2022-12-03T09:59:00.235Z,102263.94
2022-12-03T10:01:30.258Z,102266.91
2022-12-03T10:03:58.648Z,102261.84
2022-12-03T10:06:26.495Z,102285.09
2022-12-03T10:08:55.912Z,102290.03
2022-12-03T10:11:26.163Z,102314.09
2022-12-03T10:13:57.389Z,102310.69
2022-12-03T10:16:25.812Z,102315.47
2022-12-03T10:18:56.675Z,102317.06
2022-12-03T10:21:26.613Z,102323.00
2022-12-03T10:24:22.628Z,102336.81
2022-12-03T10:26:52.060Z,102310.22
2022-12-03T10:29:25.841Z,102319.94
2022-12-03T10:31:58.856Z,102299.47
2022-12-03T10:34:30.515Z,102299.38
2022-12-03T10:37:13.532Z,102301.13
2022-12-03T10:39:56.233Z,102293.91
2022-12-03T10:42:25.016Z,102283.06
2022-12-03T10:45:09.316Z,102269.22
2022-12-03T10:47:37.118Z,102263.38
2022-12-03T10:50:07.794Z,102278.03
2022-12-03T10:52:35.459Z,102281.84
2022-12-03T10:55:03.468Z,102273.72
2022-12-03T10:57:31.195Z,102277.59
2022-12-03T10:59:59.357Z,102267.63
2022-12-03T11:02:28.478Z,102286.13
2022-12-03T11:04:56.494Z,102282.16
2022-12-03T11:07:26.163Z,102257.28
2022-12-03T11:09:55.749Z,102266.38
2022-12-03T11:12:26.350Z,102263.44
2022-12-03T11:15:08.222Z,102257.16
2022-12-03T11:17:51.610Z,102256.28
2022-12-03T11:21:02.201Z,102266.81
2022-12-03T11:24:03.914Z,102250.13
2022-12-03T11:27:09.231Z,102261.13
2022-12-03T11:30:10.171Z,102238.59
2022-12-03T11:33:23.414Z,102234.19
2022-12-03T11:36:16.043Z,102229.53
2022-12-03T11:38:53.031Z,102223.41
2022-12-03T11:41:24.455Z,102224.41
2022-12-03T11:44:17.065Z,102211.78
2022-12-03T11:46:47.544Z,102199.59
2022-12-03T11:49:26.370Z,102187.84
2022-12-03T11:51:54.193Z,102201.59
2022-12-03T11:54:24.243Z,102197.16
2022-12-03T11:56:53.320Z,102191.00
2022-12-03T11:59:21.057Z,102205.88
2022-12-03T12:01:48.780Z,102192.91
2022-12-03T12:04:32.828Z,102184.75
2022-12-03T12:07:01.339Z,102183.88
2022-12-03T12:09:51.963Z,102176.47
2022-12-03T12:12:22.287Z,102178.47
2022-12-03T12:14:50.027Z,102178.59
2022-12-03T12:17:32.135Z,102169.91
2022-12-03T12:20:23.113Z,102182.28
2022-12-03T12:22:51.096Z,102193.44
2022-12-03T12:25:40.095Z,102186.81
2022-12-03T12:28:08.664Z,102187.44
2022-12-03T12:30:36.660Z,102187.91
2022-12-03T12:33:20.803Z,102192.31
2022-12-03T12:35:50.329Z,102178.00
2022-12-03T12:38:19.498Z,102168.75
2022-12-03T12:40:49.251Z,102170.81
2022-12-03T12:43:25.456Z,102176.81
2022-12-03T12:45:55.175Z,102174.66
2022-12-03T12:48:25.893Z,102147.41
2022-12-03T12:51:00.516Z,102152.78
2022-12-03T12:53:30.645Z,102155.28
2022-12-03T12:55:59.959Z,102151.56
2022-12-03T12:58:31.595Z,102179.94
2022-12-03T13:01:00.760Z,102151.25
2022-12-03T13:03:33.805Z,102140.72
2022-12-03T13:06:03.413Z,102142.16
2022-12-03T13:08:33.063Z,102137.16
2022-12-03T13:11:02.174Z,102138.81
2022-12-03T13:13:43.557Z,102134.91
2022-12-03T13:16:16.376Z,102143.94
2022-12-03T13:18:47.202Z,102142.56
2022-12-03T13:21:22.326Z,102138.22
2022-12-03T13:23:51.954Z,102132.94
2022-12-03T13:26:36.439Z,102106.09
2022-12-03T13:29:12.536Z,102120.72
2022-12-03T13:31:43.875Z,102112.00
2022-12-03T13:34:17.446Z,102111.03
2022-12-03T13:36:53.496Z,102116.06
2022-12-03T13:39:28.107Z,102109.38
2022-12-03T13:42:13.742Z,102081.88
2022-12-03T13:44:46.513Z,102082.06
2022-12-03T13:47:16.152Z,102072.09
2022-12-03T13:49:52.063Z,102081.75
2022-12-03T13:52:24.876Z,102057.97
2022-12-03T13:54:53.984Z,102080.13
2022-12-03T13:57:21.702Z,102085.41
2022-12-03T13:59:49.762Z,102093.88
2022-12-03T14:02:17.553Z,102123.38
2022-12-03T14:04:45.295Z,102114.66
2022-12-03T14:07:13.005Z,102112.41
2022-12-03T14:09:42.168Z,102111.19
2022-12-03T14:12:35.621Z,102118.38
2022-12-03T14:15:05.107Z,102128.19
2022-12-03T14:17:33.439Z,102127.56
2022-12-03T14:20:01.682Z,102132.84
2022-12-03T14:22:29.878Z,102150.78
2022-12-03T14:24:59.008Z,102151.13
2022-12-03T14:27:27.513Z,102135.28
2022-12-03T14:29:55.500Z,102128.59
2022-12-03T14:32:23.403Z,102127.09
2022-12-03T14:34:51.234Z,102121.44
2022-12-03T14:37:19.130Z,102128.03
2022-12-03T14:39:46.843Z,102111.38
2022-12-03T14:42:16.806Z,102096.56
2022-12-03T14:44:46.540Z,102121.91
2022-12-03T14:47:15.055Z,102127.75
2022-12-03T14:49:42.792Z,102121.41
2022-12-03T14:52:12.466Z,102135.28
2022-12-03T14:54:42.319Z,102130.09
2022-12-03T14:57:11.389Z,102120.41
2022-12-03T14:59:41.077Z,102142.94
2022-12-03T15:02:09.825Z,102152.69
2022-12-03T15:04:37.729Z,102151.44
2022-12-03T15:07:05.853Z,102135.97
2022-12-03T15:09:33.591Z,102128.50
2022-12-03T15:12:01.295Z,102158.25
2022-12-03T15:14:29.289Z,102138.09
2022-12-03T15:16:58.465Z,102095.47
2022-12-03T15:19:26.315Z,102087.84
2022-12-03T15:21:54.055Z,102105.63
2022-12-03T15:24:21.783Z,102112.25
2022-12-03T15:26:52.189Z,102070.03
2022-12-03T15:29:20.062Z,102087.31
2022-12-03T15:31:47.858Z,102087.25
2022-12-03T15:34:22.235Z,102080.13
2022-12-03T15:36:50.567Z,102065.53
2022-12-03T15:39:18.277Z,102082.81
2022-12-03T15:41:46.008Z,102085.91
2022-12-03T15:44:13.700Z,102055.25
2022-12-03T15:46:41.493Z,102047.16
2022-12-03T15:49:09.278Z,102062.75
2022-12-03T15:51:38.328Z,102063.88
2022-12-03T15:54:06.488Z,102063.31
2022-12-03T15:56:37.509Z,102065.81
2022-12-03T15:59:05.475Z,102061.66
2022-12-03T16:01:33.351Z,102070.88
2022-12-03T16:04:01.205Z,101939.91
2022-12-03T16:06:28.934Z,102024.25
2022-12-03T16:08:57.989Z,102020.97
2022-12-03T16:11:25.692Z,102059.81
2022-12-03T16:13:53.398Z,102060.34
2022-12-03T16:16:21.206Z,102072.38
2022-12-03T16:18:48.915Z,102068.03
2022-12-03T16:21:18.095Z,102084.88
2022-12-03T16:23:47.454Z,102088.69
2022-12-03T16:26:16.563Z,102103.72
2022-12-03T16:28:44.292Z,102110.63
2022-12-03T16:31:12.082Z,102102.25
2022-12-03T16:33:39.891Z,102100.69
2022-12-03T16:36:08.264Z,102123.09
2022-12-03T16:38:36.038Z,102097.63
2022-12-03T16:41:03.787Z,102115.75
2022-12-03T16:43:38.380Z,102119.75
2022-12-03T16:46:20.891Z,102121.97
2022-12-03T16:48:49.073Z,102145.06
2022-12-03T16:51:19.225Z,102164.75
2022-12-03T16:53:47.013Z,102181.19
2022-12-03T16:56:15.284Z,102161.97
2022-12-03T16:58:44.525Z,102154.22
2022-12-03T17:01:12.504Z,102171.53
2022-12-03T17:03:40.240Z,102158.06
2022-12-03T17:06:08.402Z,102169.06
2022-12-03T17:08:36.178Z,102203.00
2022-12-03T17:11:04.016Z,102187.09
2022-12-03T17:13:31.858Z,102198.31
2022-12-03T17:16:01.322Z,102194.94
2022-12-03T17:18:29.105Z,102192.72
2022-12-03T17:20:56.822Z,102194.84
2022-12-03T17:23:24.585Z,102196.44
2022-12-03T17:25:52.309Z,102208.97
2022-12-03T17:28:20.030Z,102216.72
2022-12-03T17:30:47.793Z,102217.41
2022-12-03T17:33:16.895Z,102212.63
2022-12-03T17:35:45.545Z,102216.69
2022-12-03T17:38:13.234Z,102216.53
2022-12-03T17:40:40.964Z,102217.34
2022-12-03T17:43:08.676Z,102209.13
2022-12-03T17:45:36.792Z,102203.53
2022-12-03T17:48:04.578Z,102192.13
2022-12-03T17:50:33.629Z,102182.00
2022-12-03T17:53:01.380Z,102192.19
2022-12-03T17:55:38.252Z,102178.78
2022-12-03T17:58:10.428Z,102193.34
2022-12-03T18:00:38.426Z,102184.50
2022-12-03T18:03:06.122Z,102196.13
2022-12-03T18:05:35.303Z,102193.56
2022-12-03T18:08:03.078Z,102194.63
2022-12-03T18:10:30.847Z,102190.00
2022-12-03T18:13:02.020Z,102196.09
2022-12-03T18:15:30.625Z,102203.84
2022-12-03T18:17:58.315Z,102208.44
2022-12-03T18:20:26.205Z,102214.56
2022-12-03T18:22:55.375Z,102228.78
2022-12-03T18:25:23.111Z,102207.72
2022-12-03T18:27:50.832Z,102202.03
2022-12-03T18:30:18.805Z,102206.19
2022-12-03T18:32:46.525Z,102204.59
2022-12-03T18:35:14.322Z,102208.91
2022-12-03T18:37:42.133Z,102218.63
2022-12-03T18:40:19.799Z,102208.22
2022-12-03T18:42:47.957Z,102212.94
2022-12-03T18:45:16.779Z,102226.63
2022-12-03T18:47:44.885Z,102213.63
2022-12-03T18:50:13.569Z,102232.66
2022-12-03T18:52:41.495Z,102214.00
2022-12-03T18:55:14.838Z,102200.91
2022-12-03T18:57:43.906Z,102198.31
2022-12-03T19:00:13.885Z,102219.56
2022-12-03T19:05:29.873Z,102227.22
2022-12-03T19:07:57.674Z,102224.16
2022-12-03T19:10:25.652Z,102207.19
2022-12-03T19:12:54.719Z,102221.50
2022-12-03T19:15:22.833Z,102231.88
2022-12-03T19:17:51.491Z,102213.00
2022-12-03T19:20:19.291Z,102190.88
2022-12-03T19:22:47.009Z,102208.53
2022-12-03T19:25:14.732Z,102196.88
2022-12-03T19:27:42.449Z,102226.72
2022-12-03T19:30:12.600Z,102202.91
2022-12-03T19:32:40.285Z,102207.44
2022-12-03T19:35:11.125Z,102201.47
2022-12-03T19:37:38.930Z,102220.59
2022-12-03T19:40:10.225Z,102205.31
2022-12-03T19:42:37.991Z,102211.19
2022-12-03T19:45:06.613Z,102221.38
2022-12-03T19:47:36.278Z,102229.84
2022-12-03T19:50:04.133Z,102224.56
2022-12-03T19:52:32.148Z,102209.09
2022-12-03T19:54:59.876Z,102224.81
2022-12-03T19:57:27.598Z,102210.78
2022-12-03T19:59:55.633Z,102218.22
2022-12-03T20:02:23.703Z,102222.13
2022-12-03T20:04:52.864Z,102218.69
2022-12-03T20:07:20.624Z,102203.47
2022-12-03T20:09:50.883Z,102227.75
2022-12-03T20:12:18.713Z,102219.09
2022-12-03T20:14:46.557Z,102221.38
2022-12-03T20:17:14.305Z,102219.13
2022-12-03T20:19:42.093Z,102225.81
2022-12-03T20:22:11.188Z,102228.78
2022-12-03T20:24:38.897Z,102224.34
2022-12-03T20:27:06.643Z,102214.34
2022-12-03T20:29:34.570Z,102198.75
2022-12-03T20:32:03.990Z,102202.19
2022-12-03T20:34:34.034Z,102209.06
2022-12-03T20:37:01.732Z,102207.38
2022-12-03T20:39:30.871Z,102204.59
2022-12-03T20:41:58.913Z,102203.16
2022-12-03T20:44:26.657Z,102203.75
2022-12-03T20:46:54.366Z,102181.84
2022-12-03T20:49:22.150Z,102155.16
2022-12-03T20:51:51.330Z,102168.22
2022-12-03T20:54:19.023Z,102179.78
2022-12-03T20:56:48.147Z,102173.22
2022-12-03T20:59:17.213Z,102194.75
2022-12-03T21:01:46.755Z,102200.59
2022-12-03T21:04:16.117Z,102204.69
2022-12-03T21:06:43.953Z,102188.56
2022-12-03T21:09:13.123Z,102192.94
2022-12-03T21:11:42.320Z,102189.84
2022-12-03T21:14:12.424Z,102173.03
2022-12-03T21:19:29.882Z,102169.59
2022-12-03T21:21:57.707Z,102147.09
2022-12-03T21:24:25.626Z,102166.53
2022-12-03T21:26:53.357Z,102158.16
2022-12-03T21:29:22.492Z,102167.63
2022-12-03T21:31:50.229Z,102165.31
2022-12-03T21:34:17.981Z,102188.50
2022-12-03T21:36:45.799Z,102161.38
2022-12-03T21:39:13.536Z,102170.84
2022-12-03T21:41:41.273Z,102177.91
2022-12-03T21:44:30.383Z,102188.41
2022-12-03T21:47:10.838Z,102190.25
2022-12-03T21:49:41.976Z,102179.97
2022-12-03T21:52:10.156Z,102161.38
2022-12-03T21:54:37.875Z,102167.69
2022-12-03T21:57:05.567Z,102167.75
2022-12-03T21:59:34.740Z,102182.63
2022-12-03T22:02:02.598Z,102181.75
2022-12-03T22:04:30.360Z,102169.97
2022-12-03T22:06:58.081Z,102181.81
2022-12-03T22:09:26.913Z,102163.69
2022-12-03T22:11:56.934Z,102157.97
2022-12-03T22:14:24.743Z,102152.00
2022-12-03T22:16:53.861Z,102153.13
2022-12-03T22:19:23.044Z,102142.22
2022-12-03T22:21:50.761Z,102138.41
2022-12-03T22:24:19.242Z,102134.06
2022-12-03T22:26:47.438Z,102115.00
2022-12-03T22:29:15.175Z,102107.50
2022-12-03T22:31:42.923Z,102122.50
2022-12-03T22:34:12.256Z,102120.66
2022-12-03T22:36:39.975Z,102116.28
2022-12-03T22:39:07.717Z,102102.59
2022-12-03T22:41:35.425Z,102089.91
2022-12-03T22:44:03.165Z,102109.09
2022-12-03T22:46:30.948Z,102102.97
2022-12-03T22:49:04.972Z,102088.69
2022-12-03T22:51:36.356Z,102077.44
2022-12-03T22:54:04.303Z,102087.16
2022-12-03T22:56:32.454Z,102072.84
2022-12-03T22:59:03.299Z,102084.97
2022-12-03T23:01:34.183Z,102078.06
2022-12-03T23:04:03.193Z,102069.16
2022-12-03T23:06:32.468Z,102075.63
2022-12-03T23:09:01.640Z,102081.72
2022-12-03T23:11:29.638Z,102078.22
2022-12-03T23:13:58.890Z,102077.78
2022-12-03T23:16:31.076Z,102059.41
2022-12-03T23:19:00.195Z,102050.00
2022-12-03T23:21:30.746Z,102045.34
2022-12-03T23:23:58.979Z,102046.47
2022-12-03T23:26:28.742Z,102034.28
2022-12-03T23:28:56.886Z,102044.72
2022-12-03T23:31:26.913Z,102050.47
2022-12-03T23:33:55.820Z,102044.84
2022-12-03T23:36:25.643Z,102055.03
2022-12-03T23:38:53.543Z,102041.44
2022-12-03T23:41:23.461Z,102047.59
2022-12-03T23:43:52.905Z,102034.63
2022-12-03T23:46:23.392Z,102040.88
2022-12-03T23:48:51.781Z,102034.78
2022-12-03T23:51:21.822Z,102020.28
2022-12-03T23:53:49.786Z,102021.16
2022-12-03T23:56:19.144Z,102029.44
2022-12-03T23:58:48.031Z,102028.91
